Home PIREPS Pireps

Flight SAB3214

  • Submitted By: Vincent Fourni
  • Departure Airport: Valerio Catullo Villafranca International Airport (LIPX)
  • Arrival Airport: Bruxelles National (EBBR)
  • Aircraft: B737-500 (OO-SAB)
  • Flight Time: 01.31
  • Date Submitted: 04/09/2016
  • Status: Accepted
Flight Details
Gross Revenue:
(120 load / € 0.00 per unit
€ 0.00
Fuel Cost:
(4362 fuel used @ 5.73 / unit)
€ 24,994.26

Additional Log Information:

View Log

Aircraft Used in flight is PMDG 737-800NGX Brussels Airlines Winglets
21:18 You Took off @ 163 Knots and Flaps at Position 3
Departure Weather
LIPX 041850Z 24004KT 210V270 9999 SCT060 SCT070 26/18 Q1013rn
21:18 Landing Gear Up @ 157 Knots and 570 Feet
21:19 Below FL100 you need to turn on the landing lights
22:42 Landing Gear Down @ 195 Knots and 2670 Feet
22:45 You Landed @ 115 Knots and with -1800 Vertical Speed
Arrival Weather
EBBR 042020Z 25010KT CAVOK 17/14 Q1015 NOSIGrn
22:45 Your Landing was very hard
22:45 Paused
22:47 Unpaused
22:47 Brakes are On
22:48 Brussels Bel-Track1.0.1.2

Route Map

Corporate About Us Our Team Vacancies Information Fleet Route Network Rules and Regulations Operations Flight Schedules Event Center Tours Partners IVAO Vatsim Acars dev FSCB

fb Users Online No pilots online!
0 Pilot(s) and 164 Guest(s) Online
CMS by phpVMS - Design by Crazycreatives.com - Copyright © 2020 - Brussels Airlines Virtual